ンジャメナ の空港の天気 - METARとTAF

ンジャメナ国際空港 ( FTTJ / NDJ ) - チャド ンジャメナ
飛行場実況気象(Metar)
観測時間04/23 05:00 WAT (04/23 04:00 UTC)
風向・風速南西 2m/s
視程10km以上
天気現象
なし
気温31℃
湿度46%
気圧1006hPa
METARFTTJ 230400Z 23004KT CAVOK 31/18 Q1006 NOSIG
過去の天気等 Google飛行場航空写真 Wunderground天気予報

過去48時間のMETAR

飛行場予報(TAF)
発表時間: 4/23 00:00 WAT (4/22 23:00 UTC)
予報対象時間: 23日1時 WAT ~ 24日7時 WAT
風向・風速不定 3m/s
視程6000m
なし
23日16時 WAT ~ 23日19時 WAT に 確率 30% で一時的に
天気現象
23日17時 WAT ~ 23日21時 WAT に一時的に
視程4000m
天気現象風塵
TAF FTTJ 222300Z 2300/2406 VRB05KT 6000 NSC
PROB30 TEMPO 2315/2318 TS
TEMPO 2316/2320 4000 DU